Terminal Aerodrome Forecast
Issued by NWS Sterling, VA

Current Version | Previous Version | Graphics & Text | Print | Product List | Glossary On
Versions: 1 2 3 4 5 6 7 8 9 10 11 12 13 14
000
FTUS41 KLWX 251739
TAFMRB
TAF
KMRB 251739Z 2518/2618 00000KT P6SM OVC090
     FM252100 VRB03KT P6SM -RA OVC090
     FM260000 00000KT 4SM -RA OVC010
     FM260600 00000KT P6SM OVC015
     FM260900 VRB03KT P6SM OVC025
     FM261200 01004KT P6SM BKN050=

USA.gov is the U.S. government's official web portal to all federal, state and local government web resources and services.